sensor_id;sensor_type;location;lat;lon;timestamp;P1;durP1;ratioP1;P2;durP2;ratioP2
7529;SDS011;3806;52.270;10.544;2023-10-09T00:00:53;3.85;;;1.35;;
7529;SDS011;3806;52.270;10.544;2023-10-09T00:03:26;3.13;;;1.17;;
7529;SDS011;3806;52.270;10.544;2023-10-09T00:05:53;3.53;;;1.35;;
7529;SDS011;3806;52.270;10.544;2023-10-09T00:08:19;2.25;;;1.30;;
7529;SDS011;3806;52.270;10.544;2023-10-09T00:10:52;3.03;;;1.15;;
7529;SDS011;3806;52.270;10.544;2023-10-09T00:13:21;2.55;;;1.17;;
7529;SDS011;3806;52.270;10.544;2023-10-09T00:15:54;4.05;;;1.30;;
7529;SDS011;3806;52.270;10.544;2023-10-09T00:18:24;1.40;;;0.93;;
7529;SDS011;3806;52.270;10.544;2023-10-09T00:20:54;4.78;;;1.23;;
7529;SDS011;3806;52.270;10.544;2023-10-09T00:23:35;2.35;;;1.20;;
7529;SDS011;3806;52.270;10.544;2023-10-09T00:26:01;1.38;;;0.77;;
7529;SDS011;3806;52.270;10.544;2023-10-09T00:28:36;2.75;;;0.70;;
7529;SDS011;3806;52.270;10.544;2023-10-09T00:31:06;2.25;;;1.13;;
7529;SDS011;3806;52.270;10.544;2023-10-09T00:33:33;2.28;;;1.15;;
7529;SDS011;3806;52.270;10.544;2023-10-09T00:36:05;2.55;;;1.00;;
7529;SDS011;3806;52.270;10.544;2023-10-09T00:38:43;1.30;;;1.00;;
7529;SDS011;3806;52.270;10.544;2023-10-09T00:41:16;4.43;;;1.40;;
7529;SDS011;3806;52.270;10.544;2023-10-09T00:43:45;5.13;;;1.20;;
7529;SDS011;3806;52.270;10.544;2023-10-09T00:46:14;3.05;;;1.25;;
7529;SDS011;3806;52.270;10.544;2023-10-09T00:48:53;3.25;;;1.02;;
7529;SDS011;3806;52.270;10.544;2023-10-09T00:51:20;3.75;;;1.15;;
7529;SDS011;3806;52.270;10.544;2023-10-09T00:53:49;2.35;;;0.98;;
7529;SDS011;3806;52.270;10.544;2023-10-09T00:56:21;1.92;;;1.10;;
7529;SDS011;3806;52.270;10.544;2023-10-09T00:58:51;2.65;;;1.00;;
7529;SDS011;3806;52.270;10.544;2023-10-09T01:01:33;1.88;;;1.05;;
7529;SDS011;3806;52.270;10.544;2023-10-09T01:04:21;3.13;;;1.17;;
7529;SDS011;3806;52.270;10.544;2023-10-09T01:06:50;2.33;;;1.27;;
7529;SDS011;3806;52.270;10.544;2023-10-09T01:09:33;3.70;;;1.05;;
7529;SDS011;3806;52.270;10.544;2023-10-09T01:12:08;1.33;;;0.90;;
7529;SDS011;3806;52.270;10.544;2023-10-09T01:14:41;2.45;;;1.00;;
7529;SDS011;3806;52.270;10.544;2023-10-09T01:17:11;10.80;;;1.00;;
7529;SDS011;3806;52.270;10.544;2023-10-09T01:19:43;2.53;;;1.08;;
7529;SDS011;3806;52.270;10.544;2023-10-09T01:22:09;3.70;;;1.90;;
7529;SDS011;3806;52.270;10.544;2023-10-09T01:24:41;1.40;;;0.93;;
7529;SDS011;3806;52.270;10.544;2023-10-09T01:27:07;2.58;;;1.13;;
7529;SDS011;3806;52.270;10.544;2023-10-09T01:29:42;4.13;;;1.17;;
7529;SDS011;3806;52.270;10.544;2023-10-09T01:32:09;2.85;;;1.08;;
7529;SDS011;3806;52.270;10.544;2023-10-09T01:34:41;3.05;;;1.33;;
7529;SDS011;3806;52.270;10.544;2023-10-09T01:37:07;3.75;;;1.48;;
7529;SDS011;3806;52.270;10.544;2023-10-09T01:39:37;3.17;;;1.08;;
7529;SDS011;3806;52.270;10.544;2023-10-09T01:42:07;1.75;;;1.05;;
7529;SDS011;3806;52.270;10.544;2023-10-09T01:44:33;3.33;;;1.25;;
7529;SDS011;3806;52.270;10.544;2023-10-09T01:47:07;1.80;;;0.97;;
7529;SDS011;3806;52.270;10.544;2023-10-09T01:49:34;1.38;;;1.10;;
7529;SDS011;3806;52.270;10.544;2023-10-09T01:52:02;2.05;;;1.08;;
7529;SDS011;3806;52.270;10.544;2023-10-09T01:54:37;1.15;;;0.95;;
7529;SDS011;3806;52.270;10.544;2023-10-09T01:57:07;2.63;;;1.23;;
7529;SDS011;3806;52.270;10.544;2023-10-09T01:59:38;2.25;;;1.58;;
7529;SDS011;3806;52.270;10.544;2023-10-09T02:02:08;2.70;;;1.08;;
7529;SDS011;3806;52.270;10.544;2023-10-09T02:04:49;3.35;;;1.38;;
7529;SDS011;3806;52.270;10.544;2023-10-09T02:07:16;2.47;;;0.98;;
7529;SDS011;3806;52.270;10.544;2023-10-09T02:09:47;3.10;;;1.02;;
7529;SDS011;3806;52.270;10.544;2023-10-09T02:12:12;1.75;;;1.20;;
7529;SDS011;3806;52.270;10.544;2023-10-09T02:14:38;3.28;;;1.45;;
7529;SDS011;3806;52.270;10.544;2023-10-09T02:17:07;2.80;;;1.33;;
7529;SDS011;3806;52.270;10.544;2023-10-09T02:19:42;1.83;;;1.00;;
7529;SDS011;3806;52.270;10.544;2023-10-09T02:22:13;2.03;;;1.00;;
7529;SDS011;3806;52.270;10.544;2023-10-09T02:24:39;3.38;;;1.25;;
7529;SDS011;3806;52.270;10.544;2023-10-09T02:27:15;2.22;;;1.10;;
7529;SDS011;3806;52.270;10.544;2023-10-09T02:29:51;2.08;;;1.05;;
7529;SDS011;3806;52.270;10.544;2023-10-09T02:32:17;3.08;;;1.50;;
7529;SDS011;3806;52.270;10.544;2023-10-09T02:34:50;3.03;;;1.02;;
7529;SDS011;3806;52.270;10.544;2023-10-09T02:37:18;3.00;;;1.23;;
7529;SDS011;3806;52.270;10.544;2023-10-09T02:39:48;6.18;;;1.20;;
7529;SDS011;3806;52.270;10.544;2023-10-09T02:42:17;2.40;;;1.08;;
7529;SDS011;3806;52.270;10.544;2023-10-09T02:44:49;3.25;;;1.38;;
7529;SDS011;3806;52.270;10.544;2023-10-09T02:47:16;1.95;;;1.00;;
7529;SDS011;3806;52.270;10.544;2023-10-09T02:49:45;3.20;;;1.25;;
7529;SDS011;3806;52.270;10.544;2023-10-09T02:52:13;3.20;;;0.95;;
7529;SDS011;3806;52.270;10.544;2023-10-09T02:54:43;4.55;;;1.35;;
7529;SDS011;3806;52.270;10.544;2023-10-09T02:57:12;5.15;;;1.42;;
7529;SDS011;3806;52.270;10.544;2023-10-09T02:59:46;3.78;;;1.23;;
7529;SDS011;3806;52.270;10.544;2023-10-09T03:02:12;5.78;;;1.50;;
7529;SDS011;3806;52.270;10.544;2023-10-09T03:04:38;4.93;;;1.50;;
7529;SDS011;3806;52.270;10.544;2023-10-09T03:07:06;1.02;;;0.88;;
7529;SDS011;3806;52.270;10.544;2023-10-09T03:09:32;1.27;;;1.05;;
7529;SDS011;3806;52.270;10.544;2023-10-09T03:12:01;1.70;;;1.00;;
7529;SDS011;3806;52.270;10.544;2023-10-09T03:14:28;5.32;;;1.17;;
7529;SDS011;3806;52.270;10.544;2023-10-09T03:17:00;3.17;;;1.10;;
7529;SDS011;3806;52.270;10.544;2023-10-09T03:19:27;2.53;;;1.05;;
7529;SDS011;3806;52.270;10.544;2023-10-09T03:21:54;2.05;;;1.10;;
7529;SDS011;3806;52.270;10.544;2023-10-09T03:24:22;2.03;;;1.13;;
7529;SDS011;3806;52.270;10.544;2023-10-09T03:26:48;3.22;;;1.40;;
7529;SDS011;3806;52.270;10.544;2023-10-09T03:29:14;3.20;;;1.25;;
7529;SDS011;3806;52.270;10.544;2023-10-09T03:31:40;2.47;;;1.23;;
7529;SDS011;3806;52.270;10.544;2023-10-09T03:34:08;3.10;;;1.20;;
7529;SDS011;3806;52.270;10.544;2023-10-09T03:36:36;2.00;;;0.90;;
7529;SDS011;3806;52.270;10.544;2023-10-09T03:39:05;4.70;;;1.58;;
7529;SDS011;3806;52.270;10.544;2023-10-09T03:41:43;2.55;;;1.48;;
7529;SDS011;3806;52.270;10.544;2023-10-09T03:44:11;3.42;;;1.40;;
7529;SDS011;3806;52.270;10.544;2023-10-09T03:46:43;4.00;;;1.55;;
7529;SDS011;3806;52.270;10.544;2023-10-09T03:49:11;2.22;;;1.10;;
7529;SDS011;3806;52.270;10.544;2023-10-09T03:51:38;3.58;;;1.60;;
7529;SDS011;3806;52.270;10.544;2023-10-09T03:54:07;3.58;;;1.63;;
7529;SDS011;3806;52.270;10.544;2023-10-09T03:56:33;2.97;;;1.33;;
7529;SDS011;3806;52.270;10.544;2023-10-09T03:58:59;3.22;;;1.10;;
7529;SDS011;3806;52.270;10.544;2023-10-09T04:01:26;6.88;;;1.40;;
7529;SDS011;3806;52.270;10.544;2023-10-09T04:03:55;8.95;;;1.63;;
7529;SDS011;3806;52.270;10.544;2023-10-09T04:06:24;2.55;;;1.20;;
7529;SDS011;3806;52.270;10.544;2023-10-09T04:09:00;2.70;;;1.65;;
7529;SDS011;3806;52.270;10.544;2023-10-09T04:11:48;2.88;;;1.50;;
7529;SDS011;3806;52.270;10.544;2023-10-09T04:14:15;4.60;;;1.52;;
7529;SDS011;3806;52.270;10.544;2023-10-09T04:16:57;9.88;;;1.83;;
7529;SDS011;3806;52.270;10.544;2023-10-09T04:19:31;4.07;;;1.42;;
7529;SDS011;3806;52.270;10.544;2023-10-09T04:22:04;3.53;;;1.52;;
7529;SDS011;3806;52.270;10.544;2023-10-09T04:24:33;6.22;;;2.15;;
7529;SDS011;3806;52.270;10.544;2023-10-09T04:27:06;4.82;;;2.65;;
7529;SDS011;3806;52.270;10.544;2023-10-09T04:29:33;3.88;;;1.98;;
7529;SDS011;3806;52.270;10.544;2023-10-09T04:32:05;3.83;;;1.65;;
7529;SDS011;3806;52.270;10.544;2023-10-09T04:34:41;4.85;;;1.40;;
7529;SDS011;3806;52.270;10.544;2023-10-09T04:37:35;2.70;;;1.60;;
7529;SDS011;3806;52.270;10.544;2023-10-09T04:40:04;5.50;;;1.80;;
7529;SDS011;3806;52.270;10.544;2023-10-09T04:42:37;4.70;;;2.03;;
7529;SDS011;3806;52.270;10.544;2023-10-09T04:45:07;4.32;;;1.80;;
7529;SDS011;3806;52.270;10.544;2023-10-09T04:47:36;3.92;;;1.45;;
7529;SDS011;3806;52.270;10.544;2023-10-09T04:52:33;6.40;;;1.90;;
7529;SDS011;3806;52.270;10.544;2023-10-09T04:54:58;4.53;;;1.65;;
7529;SDS011;3806;52.270;10.544;2023-10-09T04:57:45;5.68;;;1.90;;
7529;SDS011;3806;52.270;10.544;2023-10-09T05:00:25;4.95;;;1.90;;
7529;SDS011;3806;52.270;10.544;2023-10-09T05:02:52;4.60;;;2.13;;
7529;SDS011;3806;52.270;10.544;2023-10-09T05:05:21;3.90;;;1.92;;
7529;SDS011;3806;52.270;10.544;2023-10-09T05:08:06;3.20;;;1.60;;
7529;SDS011;3806;52.270;10.544;2023-10-09T05:10:54;3.10;;;1.98;;
7529;SDS011;3806;52.270;10.544;2023-10-09T05:16:08;5.45;;;1.90;;
7529;SDS011;3806;52.270;10.544;2023-10-09T05:18:54;7.20;;;2.53;;
7529;SDS011;3806;52.270;10.544;2023-10-09T05:21:24;8.88;;;2.65;;
7529;SDS011;3806;52.270;10.544;2023-10-09T05:23:56;4.72;;;2.30;;
7529;SDS011;3806;52.270;10.544;2023-10-09T05:26:37;7.15;;;2.70;;
7529;SDS011;3806;52.270;10.544;2023-10-09T05:29:14;6.30;;;3.45;;
7529;SDS011;3806;52.270;10.544;2023-10-09T05:31:47;13.93;;;3.55;;
7529;SDS011;3806;52.270;10.544;2023-10-09T05:34:40;7.00;;;3.72;;
7529;SDS011;3806;52.270;10.544;2023-10-09T05:37:29;5.03;;;3.10;;
7529;SDS011;3806;52.270;10.544;2023-10-09T05:40:00;7.10;;;3.45;;
7529;SDS011;3806;52.270;10.544;2023-10-09T05:45:02;9.35;;;4.00;;
7529;SDS011;3806;52.270;10.544;2023-10-09T05:47:52;8.90;;;3.85;;
7529;SDS011;3806;52.270;10.544;2023-10-09T05:50:19;9.90;;;4.65;;
7529;SDS011;3806;52.270;10.544;2023-10-09T05:52:51;8.98;;;4.63;;
7529;SDS011;3806;52.270;10.544;2023-10-09T05:55:21;9.60;;;5.15;;
7529;SDS011;3806;52.270;10.544;2023-10-09T05:57:53;13.73;;;5.20;;
7529;SDS011;3806;52.270;10.544;2023-10-09T06:00:38;15.88;;;6.43;;
7529;SDS011;3806;52.270;10.544;2023-10-09T06:03:22;14.88;;;7.10;;
7529;SDS011;3806;52.270;10.544;2023-10-09T06:05:52;12.40;;;7.10;;
7529;SDS011;3806;52.270;10.544;2023-10-09T06:08:19;14.65;;;7.70;;
7529;SDS011;3806;52.270;10.544;2023-10-09T06:11:03;17.98;;;8.40;;
7529;SDS011;3806;52.270;10.544;2023-10-09T06:13:52;18.73;;;8.50;;
7529;SDS011;3806;52.270;10.544;2023-10-09T06:16:33;16.42;;;8.70;;
7529;SDS011;3806;52.270;10.544;2023-10-09T06:19:21;18.25;;;9.35;;
7529;SDS011;3806;52.270;10.544;2023-10-09T06:21:47;21.30;;;10.38;;
7529;SDS011;3806;52.270;10.544;2023-10-09T06:24:31;24.08;;;10.10;;
7529;SDS011;3806;52.270;10.544;2023-10-09T06:27:16;19.38;;;9.45;;
7529;SDS011;3806;52.270;10.544;2023-10-09T06:29:57;22.08;;;10.32;;
7529;SDS011;3806;52.270;10.544;2023-10-09T06:32:44;23.00;;;12.40;;
7529;SDS011;3806;52.270;10.544;2023-10-09T06:35:44;27.25;;;12.15;;
7529;SDS011;3806;52.270;10.544;2023-10-09T06:38:18;24.48;;;13.00;;
7529;SDS011;3806;52.270;10.544;2023-10-09T06:40:48;29.17;;;14.60;;
7529;SDS011;3806;52.270;10.544;2023-10-09T06:43:47;30.33;;;13.85;;
7529;SDS011;3806;52.270;10.544;2023-10-09T06:46:18;27.92;;;13.40;;
7529;SDS011;3806;52.270;10.544;2023-10-09T06:48:49;28.40;;;13.30;;
7529;SDS011;3806;52.270;10.544;2023-10-09T06:51:21;30.75;;;14.07;;
7529;SDS011;3806;52.270;10.544;2023-10-09T06:53:50;25.35;;;13.60;;
7529;SDS011;3806;52.270;10.544;2023-10-09T06:56:29;25.45;;;13.75;;
7529;SDS011;3806;52.270;10.544;2023-10-09T06:58:55;29.65;;;15.25;;
7529;SDS011;3806;52.270;10.544;2023-10-09T07:01:33;25.80;;;13.52;;
7529;SDS011;3806;52.270;10.544;2023-10-09T07:04:11;29.85;;;13.50;;
7529;SDS011;3806;52.270;10.544;2023-10-09T07:06:55;32.47;;;13.95;;
7529;SDS011;3806;52.270;10.544;2023-10-09T07:09:22;28.33;;;14.02;;
7529;SDS011;3806;52.270;10.544;2023-10-09T07:11:51;26.08;;;13.32;;
7529;SDS011;3806;52.270;10.544;2023-10-09T07:14:17;30.30;;;14.38;;
7529;SDS011;3806;52.270;10.544;2023-10-09T07:17:17;26.67;;;11.77;;
7529;SDS011;3806;52.270;10.544;2023-10-09T07:19:58;24.40;;;11.95;;
7529;SDS011;3806;52.270;10.544;2023-10-09T07:22:41;25.17;;;11.77;;
7529;SDS011;3806;52.270;10.544;2023-10-09T07:25:21;23.40;;;11.25;;
7529;SDS011;3806;52.270;10.544;2023-10-09T07:28:09;25.63;;;11.38;;
7529;SDS011;3806;52.270;10.544;2023-10-09T07:30:55;26.35;;;12.20;;
7529;SDS011;3806;52.270;10.544;2023-10-09T07:33:24;25.73;;;11.38;;
7529;SDS011;3806;52.270;10.544;2023-10-09T07:36:17;26.77;;;11.48;;
7529;SDS011;3806;52.270;10.544;2023-10-09T07:38:54;26.73;;;14.23;;
7529;SDS011;3806;52.270;10.544;2023-10-09T07:41:20;25.15;;;10.48;;
7529;SDS011;3806;52.270;10.544;2023-10-09T07:43:45;24.83;;;11.82;;
7529;SDS011;3806;52.270;10.544;2023-10-09T07:46:16;25.55;;;11.68;;
7529;SDS011;3806;52.270;10.544;2023-10-09T07:48:57;26.53;;;12.00;;
7529;SDS011;3806;52.270;10.544;2023-10-09T07:51:25;23.67;;;11.18;;
7529;SDS011;3806;52.270;10.544;2023-10-09T07:54:00;23.00;;;11.10;;
7529;SDS011;3806;52.270;10.544;2023-10-09T07:56:33;30.23;;;11.88;;
7529;SDS011;3806;52.270;10.544;2023-10-09T07:59:03;25.05;;;11.70;;
7529;SDS011;3806;52.270;10.544;2023-10-09T08:01:40;24.35;;;11.90;;
7529;SDS011;3806;52.270;10.544;2023-10-09T08:04:39;25.40;;;12.13;;
7529;SDS011;3806;52.270;10.544;2023-10-09T08:07:15;30.38;;;11.65;;
7529;SDS011;3806;52.270;10.544;2023-10-09T08:09:48;26.02;;;11.98;;
7529;SDS011;3806;52.270;10.544;2023-10-09T08:12:14;25.38;;;12.77;;
7529;SDS011;3806;52.270;10.544;2023-10-09T08:15:00;27.02;;;12.50;;
7529;SDS011;3806;52.270;10.544;2023-10-09T08:17:47;24.75;;;11.68;;
7529;SDS011;3806;52.270;10.544;2023-10-09T08:20:33;25.13;;;11.52;;
7529;SDS011;3806;52.270;10.544;2023-10-09T08:23:16;23.33;;;11.48;;
7529;SDS011;3806;52.270;10.544;2023-10-09T08:25:59;21.05;;;10.75;;
7529;SDS011;3806;52.270;10.544;2023-10-09T08:28:40;23.42;;;11.18;;
7529;SDS011;3806;52.270;10.544;2023-10-09T08:31:08;29.25;;;12.43;;
7529;SDS011;3806;52.270;10.544;2023-10-09T08:33:44;23.92;;;11.90;;
7529;SDS011;3806;52.270;10.544;2023-10-09T08:36:26;29.60;;;10.88;;
7529;SDS011;3806;52.270;10.544;2023-10-09T08:38:53;20.08;;;10.88;;
7529;SDS011;3806;52.270;10.544;2023-10-09T08:41:23;24.98;;;11.88;;
7529;SDS011;3806;52.270;10.544;2023-10-09T08:43:55;21.98;;;10.60;;
7529;SDS011;3806;52.270;10.544;2023-10-09T08:46:28;21.50;;;10.20;;
7529;SDS011;3806;52.270;10.544;2023-10-09T08:48:58;23.55;;;12.10;;
7529;SDS011;3806;52.270;10.544;2023-10-09T08:51:24;21.10;;;10.52;;
7529;SDS011;3806;52.270;10.544;2023-10-09T08:53:51;19.45;;;9.80;;
7529;SDS011;3806;52.270;10.544;2023-10-09T08:56:17;21.98;;;10.35;;
7529;SDS011;3806;52.270;10.544;2023-10-09T08:58:47;22.90;;;10.57;;
7529;SDS011;3806;52.270;10.544;2023-10-09T09:01:17;22.58;;;10.80;;
7529;SDS011;3806;52.270;10.544;2023-10-09T09:03:47;25.35;;;10.57;;
7529;SDS011;3806;52.270;10.544;2023-10-09T09:06:15;24.45;;;11.05;;
7529;SDS011;3806;52.270;10.544;2023-10-09T09:08:42;23.42;;;10.23;;
7529;SDS011;3806;52.270;10.544;2023-10-09T09:11:16;21.38;;;9.50;;
7529;SDS011;3806;52.270;10.544;2023-10-09T09:14:02;23.67;;;10.85;;
7529;SDS011;3806;52.270;10.544;2023-10-09T09:16:36;19.77;;;10.07;;
7529;SDS011;3806;52.270;10.544;2023-10-09T09:19:09;18.83;;;10.25;;
7529;SDS011;3806;52.270;10.544;2023-10-09T09:21:38;22.38;;;10.73;;
7529;SDS011;3806;52.270;10.544;2023-10-09T09:24:09;21.80;;;10.55;;
7529;SDS011;3806;52.270;10.544;2023-10-09T09:26:52;22.70;;;10.57;;
7529;SDS011;3806;52.270;10.544;2023-10-09T09:29:46;21.13;;;12.02;;
7529;SDS011;3806;52.270;10.544;2023-10-09T09:32:26;19.40;;;9.70;;
7529;SDS011;3806;52.270;10.544;2023-10-09T09:35:03;22.10;;;11.95;;
7529;SDS011;3806;52.270;10.544;2023-10-09T09:37:31;19.30;;;10.13;;
7529;SDS011;3806;52.270;10.544;2023-10-09T09:40:15;22.38;;;10.80;;
7529;SDS011;3806;52.270;10.544;2023-10-09T09:42:54;19.80;;;9.85;;
7529;SDS011;3806;52.270;10.544;2023-10-09T09:45:31;20.30;;;10.35;;
7529;SDS011;3806;52.270;10.544;2023-10-09T09:47:59;24.60;;;11.55;;
7529;SDS011;3806;52.270;10.544;2023-10-09T09:50:35;25.23;;;11.18;;
7529;SDS011;3806;52.270;10.544;2023-10-09T09:53:10;25.38;;;12.57;;
7529;SDS011;3806;52.270;10.544;2023-10-09T09:55:42;22.10;;;11.23;;
7529;SDS011;3806;52.270;10.544;2023-10-09T09:58:24;20.05;;;10.93;;
7529;SDS011;3806;52.270;10.544;2023-10-09T10:01:09;25.92;;;11.35;;
7529;SDS011;3806;52.270;10.544;2023-10-09T10:03:50;18.90;;;10.40;;
7529;SDS011;3806;52.270;10.544;2023-10-09T10:06:21;25.25;;;12.38;;
7529;SDS011;3806;52.270;10.544;2023-10-09T10:08:51;21.60;;;10.70;;
7529;SDS011;3806;52.270;10.544;2023-10-09T10:14:09;23.30;;;11.10;;
7529;SDS011;3806;52.270;10.544;2023-10-09T10:16:59;21.90;;;10.45;;
7529;SDS011;3806;52.270;10.544;2023-10-09T10:22:42;20.33;;;11.05;;
7529;SDS011;3806;52.270;10.544;2023-10-09T10:25:31;25.48;;;12.27;;
7529;SDS011;3806;52.270;10.544;2023-10-09T10:28:31;20.15;;;10.85;;
7529;SDS011;3806;52.270;10.544;2023-10-09T10:31:09;23.38;;;11.43;;
7529;SDS011;3806;52.270;10.544;2023-10-09T10:36:20;20.88;;;10.88;;
7529;SDS011;3806;52.270;10.544;2023-10-09T10:38:59;23.90;;;12.55;;
7529;SDS011;3806;52.270;10.544;2023-10-09T10:41:53;22.00;;;11.88;;
7529;SDS011;3806;52.270;10.544;2023-10-09T10:44:26;23.55;;;12.23;;
7529;SDS011;3806;52.270;10.544;2023-10-09T10:47:07;24.42;;;12.57;;
7529;SDS011;3806;52.270;10.544;2023-10-09T10:49:52;23.87;;;12.40;;
7529;SDS011;3806;52.270;10.544;2023-10-09T10:52:27;23.90;;;12.43;;
7529;SDS011;3806;52.270;10.544;2023-10-09T10:55:13;21.42;;;11.82;;
7529;SDS011;3806;52.270;10.544;2023-10-09T10:57:44;26.15;;;12.25;;
7529;SDS011;3806;52.270;10.544;2023-10-09T11:00:25;20.55;;;11.40;;
7529;SDS011;3806;52.270;10.544;2023-10-09T11:03:22;21.42;;;11.68;;
7529;SDS011;3806;52.270;10.544;2023-10-09T11:06:06;21.67;;;11.57;;
7529;SDS011;3806;52.270;10.544;2023-10-09T11:08:43;19.88;;;12.00;;
7529;SDS011;3806;52.270;10.544;2023-10-09T11:11:19;21.60;;;11.50;;
7529;SDS011;3806;52.270;10.544;2023-10-09T11:13:45;21.52;;;11.88;;
7529;SDS011;3806;52.270;10.544;2023-10-09T11:16:24;20.98;;;12.27;;
7529;SDS011;3806;52.270;10.544;2023-10-09T11:19:10;26.20;;;12.55;;
7529;SDS011;3806;52.270;10.544;2023-10-09T11:21:52;24.13;;;12.57;;
7529;SDS011;3806;52.270;10.544;2023-10-09T11:24:31;23.27;;;12.15;;
7529;SDS011;3806;52.270;10.544;2023-10-09T11:27:03;27.60;;;13.98;;
7529;SDS011;3806;52.270;10.544;2023-10-09T11:29:47;27.70;;;13.75;;
7529;SDS011;3806;52.270;10.544;2023-10-09T11:32:17;24.42;;;13.82;;
7529;SDS011;3806;52.270;10.544;2023-10-09T11:34:50;20.50;;;11.80;;
7529;SDS011;3806;52.270;10.544;2023-10-09T11:37:33;24.80;;;13.90;;
7529;SDS011;3806;52.270;10.544;2023-10-09T11:40:07;24.77;;;13.77;;
7529;SDS011;3806;52.270;10.544;2023-10-09T11:43:19;21.30;;;11.85;;
7529;SDS011;3806;52.270;10.544;2023-10-09T11:46:11;22.23;;;11.25;;
7529;SDS011;3806;52.270;10.544;2023-10-09T11:48:36;22.55;;;12.15;;
7529;SDS011;3806;52.270;10.544;2023-10-09T11:51:22;18.27;;;11.00;;
7529;SDS011;3806;52.270;10.544;2023-10-09T11:53:47;21.02;;;11.68;;
7529;SDS011;3806;52.270;10.544;2023-10-09T11:56:21;18.23;;;10.75;;
7529;SDS011;3806;52.270;10.544;2023-10-09T11:58:47;17.23;;;10.32;;
7529;SDS011;3806;52.270;10.544;2023-10-09T12:01:17;18.90;;;9.93;;
7529;SDS011;3806;52.270;10.544;2023-10-09T12:03:45;15.55;;;8.48;;
7529;SDS011;3806;52.270;10.544;2023-10-09T12:06:15;17.42;;;9.90;;
7529;SDS011;3806;52.270;10.544;2023-10-09T12:08:44;15.30;;;9.32;;
7529;SDS011;3806;52.270;10.544;2023-10-09T12:11:13;18.27;;;8.63;;
7529;SDS011;3806;52.270;10.544;2023-10-09T12:13:40;16.17;;;9.00;;
7529;SDS011;3806;52.270;10.544;2023-10-09T12:16:10;14.07;;;8.65;;
7529;SDS011;3806;52.270;10.544;2023-10-09T12:18:36;15.68;;;7.90;;
7529;SDS011;3806;52.270;10.544;2023-10-09T12:21:04;19.33;;;9.05;;
7529;SDS011;3806;52.270;10.544;2023-10-09T12:23:31;14.90;;;8.30;;
7529;SDS011;3806;52.270;10.544;2023-10-09T12:26:05;14.70;;;8.85;;
7529;SDS011;3806;52.270;10.544;2023-10-09T12:28:39;12.70;;;8.75;;
7529;SDS011;3806;52.270;10.544;2023-10-09T12:31:11;18.70;;;8.88;;
7529;SDS011;3806;52.270;10.544;2023-10-09T12:33:40;15.07;;;8.05;;
7529;SDS011;3806;52.270;10.544;2023-10-09T12:36:05;15.23;;;8.68;;
7529;SDS011;3806;52.270;10.544;2023-10-09T12:38:31;17.45;;;9.35;;
7529;SDS011;3806;52.270;10.544;2023-10-09T12:41:07;15.10;;;8.48;;
7529;SDS011;3806;52.270;10.544;2023-10-09T12:43:45;11.15;;;7.97;;
7529;SDS011;3806;52.270;10.544;2023-10-09T12:46:11;16.35;;;8.43;;
7529;SDS011;3806;52.270;10.544;2023-10-09T12:48:44;16.38;;;8.38;;
7529;SDS011;3806;52.270;10.544;2023-10-09T12:51:11;17.25;;;8.65;;
7529;SDS011;3806;52.270;10.544;2023-10-09T12:53:41;13.07;;;9.15;;
7529;SDS011;3806;52.270;10.544;2023-10-09T12:56:07;14.93;;;8.02;;
7529;SDS011;3806;52.270;10.544;2023-10-09T12:58:34;14.68;;;8.38;;
7529;SDS011;3806;52.270;10.544;2023-10-09T13:01:02;13.25;;;8.40;;
7529;SDS011;3806;52.270;10.544;2023-10-09T13:03:37;16.33;;;8.40;;
7529;SDS011;3806;52.270;10.544;2023-10-09T13:06:04;14.73;;;8.73;;
7529;SDS011;3806;52.270;10.544;2023-10-09T13:08:35;13.20;;;7.80;;
7529;SDS011;3806;52.270;10.544;2023-10-09T13:11:05;14.85;;;8.38;;
7529;SDS011;3806;52.270;10.544;2023-10-09T13:13:35;13.07;;;7.97;;
7529;SDS011;3806;52.270;10.544;2023-10-09T13:16:09;12.27;;;8.00;;
7529;SDS011;3806;52.270;10.544;2023-10-09T13:18:39;15.65;;;7.35;;
7529;SDS011;3806;52.270;10.544;2023-10-09T13:21:06;13.38;;;7.82;;
7529;SDS011;3806;52.270;10.544;2023-10-09T13:23:32;11.32;;;7.15;;
7529;SDS011;3806;52.270;10.544;2023-10-09T13:26:05;11.52;;;7.13;;
7529;SDS011;3806;52.270;10.544;2023-10-09T13:28:42;15.02;;;6.93;;
7529;SDS011;3806;52.270;10.544;2023-10-09T13:31:10;11.38;;;6.93;;
7529;SDS011;3806;52.270;10.544;2023-10-09T13:33:39;11.23;;;6.88;;
7529;SDS011;3806;52.270;10.544;2023-10-09T13:36:05;11.82;;;6.95;;
7529;SDS011;3806;52.270;10.544;2023-10-09T13:38:41;9.18;;;6.32;;
7529;SDS011;3806;52.270;10.544;2023-10-09T13:41:08;10.70;;;6.85;;
7529;SDS011;3806;52.270;10.544;2023-10-09T13:43:38;11.13;;;5.80;;
7529;SDS011;3806;52.270;10.544;2023-10-09T13:46:06;13.95;;;5.75;;
7529;SDS011;3806;52.270;10.544;2023-10-09T13:48:33;9.13;;;6.43;;
7529;SDS011;3806;52.270;10.544;2023-10-09T13:51:03;11.38;;;5.65;;
7529;SDS011;3806;52.270;10.544;2023-10-09T13:53:32;11.35;;;6.05;;
7529;SDS011;3806;52.270;10.544;2023-10-09T13:56:00;7.88;;;5.75;;
7529;SDS011;3806;52.270;10.544;2023-10-09T13:58:31;10.23;;;6.65;;
7529;SDS011;3806;52.270;10.544;2023-10-09T14:00:57;10.63;;;6.70;;
7529;SDS011;3806;52.270;10.544;2023-10-09T14:03:23;9.77;;;6.07;;
7529;SDS011;3806;52.270;10.544;2023-10-09T14:05:49;12.20;;;6.90;;
7529;SDS011;3806;52.270;10.544;2023-10-09T14:08:22;10.20;;;6.10;;
7529;SDS011;3806;52.270;10.544;2023-10-09T14:10:49;9.80;;;6.35;;
7529;SDS011;3806;52.270;10.544;2023-10-09T14:13:15;10.98;;;6.40;;
7529;SDS011;3806;52.270;10.544;2023-10-09T14:15:42;8.73;;;5.53;;
7529;SDS011;3806;52.270;10.544;2023-10-09T14:18:10;8.23;;;6.10;;
7529;SDS011;3806;52.270;10.544;2023-10-09T14:20:37;11.38;;;6.70;;
7529;SDS011;3806;52.270;10.544;2023-10-09T14:23:03;8.95;;;5.43;;
7529;SDS011;3806;52.270;10.544;2023-10-09T14:25:32;9.13;;;6.10;;
7529;SDS011;3806;52.270;10.544;2023-10-09T14:28:02;8.38;;;5.75;;
7529;SDS011;3806;52.270;10.544;2023-10-09T14:30:32;12.50;;;6.65;;
7529;SDS011;3806;52.270;10.544;2023-10-09T14:33:06;9.73;;;6.00;;
7529;SDS011;3806;52.270;10.544;2023-10-09T14:35:37;8.45;;;6.15;;
7529;SDS011;3806;52.270;10.544;2023-10-09T14:38:04;8.40;;;5.70;;
7529;SDS011;3806;52.270;10.544;2023-10-09T14:40:36;8.40;;;5.88;;
7529;SDS011;3806;52.270;10.544;2023-10-09T14:43:06;10.82;;;6.70;;
7529;SDS011;3806;52.270;10.544;2023-10-09T14:45:36;9.10;;;5.68;;
7529;SDS011;3806;52.270;10.544;2023-10-09T14:48:01;9.93;;;6.20;;
7529;SDS011;3806;52.270;10.544;2023-10-09T14:50:27;11.00;;;6.03;;
7529;SDS011;3806;52.270;10.544;2023-10-09T14:52:53;9.50;;;6.05;;
7529;SDS011;3806;52.270;10.544;2023-10-09T14:55:18;8.35;;;5.50;;
7529;SDS011;3806;52.270;10.544;2023-10-09T14:57:53;9.43;;;6.32;;
7529;SDS011;3806;52.270;10.544;2023-10-09T15:00:19;10.18;;;6.22;;
7529;SDS011;3806;52.270;10.544;2023-10-09T15:02:48;11.40;;;5.95;;
7529;SDS011;3806;52.270;10.544;2023-10-09T15:05:16;10.25;;;6.28;;
7529;SDS011;3806;52.270;10.544;2023-10-09T15:07:41;10.55;;;6.82;;
7529;SDS011;3806;52.270;10.544;2023-10-09T15:10:07;10.20;;;7.07;;
7529;SDS011;3806;52.270;10.544;2023-10-09T15:12:34;8.82;;;5.97;;
7529;SDS011;3806;52.270;10.544;2023-10-09T15:15:05;8.82;;;6.10;;
7529;SDS011;3806;52.270;10.544;2023-10-09T15:17:42;10.63;;;7.45;;
7529;SDS011;3806;52.270;10.544;2023-10-09T15:20:12;10.65;;;6.43;;
7529;SDS011;3806;52.270;10.544;2023-10-09T15:22:42;10.43;;;6.72;;
7529;SDS011;3806;52.270;10.544;2023-10-09T15:25:09;13.35;;;7.78;;
7529;SDS011;3806;52.270;10.544;2023-10-09T15:27:39;11.50;;;7.68;;
7529;SDS011;3806;52.270;10.544;2023-10-09T15:30:05;9.30;;;7.13;;
7529;SDS011;3806;52.270;10.544;2023-10-09T15:32:33;10.00;;;7.47;;
7529;SDS011;3806;52.270;10.544;2023-10-09T15:35:00;12.48;;;7.47;;
7529;SDS011;3806;52.270;10.544;2023-10-09T15:37:28;10.82;;;7.07;;
7529;SDS011;3806;52.270;10.544;2023-10-09T15:39:54;12.57;;;7.72;;